createdAt,value
2022-12-14T00:00:09.082Z,18.89999962
2022-12-14T00:01:09.719Z,18.5
2022-12-14T00:02:10.221Z,19
2022-12-14T00:03:11.962Z,18.39999962
2022-12-14T00:04:12.430Z,17.60000038
2022-12-14T00:05:12.962Z,18.39999962
2022-12-14T00:06:13.799Z,18.89999962
2022-12-14T00:07:14.270Z,18.20000076
2022-12-14T00:08:14.876Z,19.29999924
2022-12-14T00:09:15.423Z,18.89999962
2022-12-14T00:10:16.045Z,18.5
2022-12-14T00:11:16.638Z,19.29999924
2022-12-14T00:12:17.143Z,19.60000038
2022-12-14T00:13:18.763Z,19.39999962
2022-12-14T00:14:19.349Z,20.20000076
2022-12-14T00:15:20.505Z,19.70000076
2022-12-14T00:16:21.248Z,19.39999962
2022-12-14T00:17:21.663Z,19.60000038
2022-12-14T00:18:22.777Z,18.79999924
2022-12-14T00:19:23.113Z,19.89999962
2022-12-14T00:20:54.629Z,17.5
2022-12-14T00:21:55.964Z,18.79999924
2022-12-14T00:22:56.411Z,17.39999962
2022-12-14T00:23:57.866Z,17.70000076
2022-12-14T00:24:58.404Z,18
2022-12-14T00:25:59.070Z,18.29999924
2022-12-14T00:26:59.689Z,19.39999962
2022-12-14T00:28:00.276Z,18.5
2022-12-14T00:29:00.820Z,19.5
2022-12-14T00:30:01.317Z,20.5
2022-12-14T00:31:02.221Z,20.29999924
2022-12-14T00:32:02.717Z,19.89999962
2022-12-14T00:33:04.405Z,19
2022-12-14T00:34:04.928Z,17.5
2022-12-14T00:35:05.499Z,19.60000038
2022-12-14T00:36:06.051Z,19
2022-12-14T00:37:07.404Z,19.29999924
2022-12-14T00:38:08.062Z,18.79999924
2022-12-14T00:39:08.696Z,18.89999962
2022-12-14T00:40:09.387Z,19
2022-12-14T00:41:09.884Z,19.20000076
2022-12-14T00:42:10.416Z,18.20000076
2022-12-14T00:43:11.888Z,17.79999924
2022-12-14T00:44:12.455Z,17.60000038
2022-12-14T00:45:13.135Z,18.5
2022-12-14T00:46:14.676Z,18
2022-12-14T00:47:15.192Z,18
2022-12-14T00:48:15.852Z,19.60000038
2022-12-14T00:49:16.456Z,16.70000076
2022-12-14T00:50:17.049Z,18.39999962
2022-12-14T00:51:17.611Z,18.70000076
2022-12-14T00:52:18.261Z,18.79999924
2022-12-14T00:53:19.368Z,18.10000038
2022-12-14T00:54:19.940Z,19.10000038
2022-12-14T00:55:20.587Z,18.39999962
2022-12-14T00:56:21.166Z,17.89999962
2022-12-14T00:57:21.680Z,19.39999962
2022-12-14T00:58:22.285Z,17.29999924
2022-12-14T00:59:27.215Z,18.5
2022-12-14T01:00:54.260Z,19.39999962
2022-12-14T01:01:55.024Z,18.79999924
2022-12-14T01:02:55.510Z,19.29999924
2022-12-14T01:03:56.830Z,18.5
2022-12-14T01:04:57.257Z,18.60000038
2022-12-14T01:05:57.835Z,17.5
2022-12-14T01:06:58.879Z,17.79999924
2022-12-14T01:07:59.555Z,19.10000038
2022-12-14T01:09:00.120Z,18.60000038
2022-12-14T01:10:00.701Z,18.60000038
2022-12-14T01:11:01.267Z,19.60000038
2022-12-14T01:12:02.373Z,19.29999924
2022-12-14T01:13:03.058Z,18.5
2022-12-14T01:14:04.121Z,18.89999962
2022-12-14T01:15:04.613Z,19.79999924
2022-12-14T01:16:05.967Z,17.60000038
2022-12-14T01:17:06.371Z,18.20000076
2022-12-14T01:18:07.159Z,19.20000076
2022-12-14T01:19:07.570Z,19.10000038
2022-12-14T01:20:08.197Z,18.60000038
2022-12-14T01:21:09.370Z,18.20000076
2022-12-14T01:22:09.895Z,19.5
2022-12-14T01:23:11.351Z,19
2022-12-14T01:24:11.856Z,19.89999962
2022-12-14T01:25:13.396Z,20.29999924
2022-12-14T01:26:14.002Z,19.10000038
2022-12-14T01:27:14.641Z,19.5
2022-12-14T01:28:15.259Z,18.39999962
2022-12-14T01:29:15.824Z,19.20000076
2022-12-14T01:30:16.442Z,19.70000076
2022-12-14T01:31:17.192Z,19.39999962
2022-12-14T01:32:17.736Z,18.29999924
2022-12-14T01:33:18.886Z,18.29999924
2022-12-14T01:34:19.564Z,18.70000076
2022-12-14T01:35:20.109Z,19.79999924
2022-12-14T01:36:20.724Z,18.10000038
2022-12-14T01:37:21.229Z,18.29999924
2022-12-14T01:38:21.766Z,18.5
2022-12-14T01:39:22.765Z,18.70000076
2022-12-14T01:40:54.245Z,18.20000076
2022-12-14T01:41:54.767Z,19.89999962
2022-12-14T01:42:55.368Z,19.89999962
2022-12-14T01:43:56.646Z,19.79999924
2022-12-14T01:44:57.112Z,19.79999924
2022-12-14T01:45:58.356Z,19.79999924
2022-12-14T01:46:58.908Z,17.79999924
2022-12-14T01:47:59.425Z,19.70000076
2022-12-14T01:49:00.124Z,21.10000038
2022-12-14T01:50:00.628Z,19.79999924
2022-12-14T01:51:01.222Z,19.70000076
2022-12-14T01:52:01.811Z,19.70000076
2022-12-14T01:53:02.314Z,19
2022-12-14T01:54:03.858Z,18.20000076
2022-12-14T01:55:04.315Z,18.29999924
2022-12-14T01:56:05.484Z,19.89999962
2022-12-14T01:57:06.079Z,19.29999924
2022-12-14T01:58:06.577Z,18.29999924
2022-12-14T01:59:07.127Z,18.5
2022-12-14T02:00:07.885Z,19.29999924
2022-12-14T02:01:08.340Z,17.79999924
2022-12-14T02:02:09.061Z,20
2022-12-14T02:03:09.568Z,19
2022-12-14T02:04:10.818Z,19.29999924
2022-12-14T02:05:11.298Z,18
2022-12-14T02:06:12.018Z,19.39999962
2022-12-14T02:07:12.608Z,18.70000076
2022-12-14T02:08:13.091Z,18.5
2022-12-14T02:09:13.870Z,18
2022-12-14T02:10:14.358Z,19
2022-12-14T02:11:14.995Z,18.5
2022-12-14T02:12:15.549Z,18.79999924
2022-12-14T02:13:16.050Z,18.70000076
2022-12-14T02:14:17.293Z,19.10000038
2022-12-14T02:15:17.812Z,18.79999924
2022-12-14T02:16:18.996Z,18.89999962
2022-12-14T02:17:19.562Z,18.70000076
2022-12-14T02:18:20.063Z,19.79999924
2022-12-14T02:19:20.770Z,18.39999962
2022-12-14T02:20:21.225Z,19.29999924
2022-12-14T02:21:21.829Z,19.89999962
2022-12-14T02:22:53.030Z,18.79999924
2022-12-14T02:23:54.360Z,19.79999924
2022-12-14T02:24:54.861Z,18.5
2022-12-14T02:25:55.476Z,21
2022-12-14T02:26:56.073Z,19.79999924
2022-12-14T02:27:56.625Z,20.39999962
2022-12-14T02:28:57.288Z,19.10000038
2022-12-14T02:29:57.819Z,19.20000076
2022-12-14T02:30:58.431Z,20.10000038
2022-12-14T02:31:59.860Z,20.89999962
2022-12-14T02:33:00.531Z,19.10000038
2022-12-14T02:34:01.866Z,18.29999924
2022-12-14T02:35:02.519Z,20.10000038
2022-12-14T02:36:03.126Z,20.10000038
2022-12-14T02:37:03.651Z,18.60000038
2022-12-14T02:38:04.348Z,19.10000038
2022-12-14T02:39:04.848Z,18.89999962
2022-12-14T02:40:05.397Z,20.10000038
2022-12-14T02:41:05.985Z,20.20000076
2022-12-14T02:42:06.493Z,20.60000038
2022-12-14T02:43:07.092Z,18.79999924
2022-12-14T02:44:08.424Z,18
2022-12-14T02:45:09.108Z,18.29999924
2022-12-14T02:46:09.903Z,17.60000038
2022-12-14T02:47:10.382Z,19.20000076
2022-12-14T02:48:10.997Z,18.5
2022-12-14T02:49:11.567Z,18.39999962
2022-12-14T02:50:12.273Z,20
2022-12-14T02:51:12.850Z,19.5
2022-12-14T02:52:13.383Z,18.70000076
2022-12-14T02:53:14.006Z,19
2022-12-14T02:54:15.123Z,18.29999924
2022-12-14T02:55:15.752Z,19.39999962
2022-12-14T02:56:16.864Z,18.10000038
2022-12-14T02:57:17.539Z,19.20000076
2022-12-14T02:58:18.110Z,17.5
2022-12-14T02:59:18.616Z,19.20000076
2022-12-14T03:00:19.282Z,19.29999924
2022-12-14T03:01:19.832Z,17.60000038
2022-12-14T03:02:20.547Z,18.29999924
2022-12-14T03:03:21.021Z,19.10000038
2022-12-14T03:04:52.474Z,20.5
2022-12-14T03:05:53.031Z,20.20000076
2022-12-14T03:06:53.667Z,19.29999924
2022-12-14T03:07:54.281Z,21.5
2022-12-14T03:08:54.844Z,19.89999962
2022-12-14T03:09:55.424Z,19.20000076
2022-12-14T03:10:55.975Z,19.60000038
2022-12-14T03:11:56.608Z,21.60000038
2022-12-14T03:12:57.183Z,20.70000076
2022-12-14T03:13:58.351Z,21.10000038
2022-12-14T03:14:58.963Z,20.79999924
2022-12-14T03:15:59.550Z,19.39999962
2022-12-14T03:17:00.733Z,20.20000076
2022-12-14T03:18:01.253Z,19.5
2022-12-14T03:19:01.962Z,20.70000076
2022-12-14T03:20:02.557Z,21.79999924
2022-12-14T03:21:03.128Z,20.20000076
2022-12-14T03:22:03.760Z,21
2022-12-14T03:23:04.253Z,19.5
2022-12-14T03:24:04.825Z,20.39999962
2022-12-14T03:25:06.171Z,19.29999924
2022-12-14T03:26:06.816Z,19.60000038
2022-12-14T03:27:07.277Z,19.60000038
2022-12-14T03:28:07.844Z,20.39999962
2022-12-14T03:29:08.460Z,20.10000038
2022-12-14T03:30:08.943Z,21
2022-12-14T03:31:09.738Z,20.60000038
2022-12-14T03:32:10.166Z,19
2022-12-14T03:33:10.731Z,19.79999924
2022-12-14T03:34:13.495Z,18.39999962
2022-12-14T03:35:12.366Z,19.60000038
2022-12-14T03:36:13.113Z,20.29999924
2022-12-14T03:37:13.635Z,18.89999962
2022-12-14T03:38:14.287Z,18.29999924
2022-12-14T03:39:15.849Z,20.10000038
2022-12-14T03:40:16.359Z,18.79999924
2022-12-14T03:41:17.005Z,19.29999924
2022-12-14T03:42:17.495Z,19.70000076
2022-12-14T03:43:18.192Z,19.29999924
2022-12-14T03:44:19.340Z,18.79999924
2022-12-14T03:45:19.863Z,20.39999962
2022-12-14T03:46:20.530Z,19.79999924
2022-12-14T03:47:51.964Z,18.79999924
2022-12-14T03:48:52.669Z,18.39999962
2022-12-14T03:49:53.190Z,19.89999962
2022-12-14T03:50:53.836Z,18.79999924
2022-12-14T03:51:54.367Z,19.39999962
2022-12-14T03:52:54.975Z,17.79999924
2022-12-14T03:53:55.517Z,19.10000038
2022-12-14T03:54:56.646Z,18.89999962
2022-12-14T03:55:57.377Z,18.39999962
2022-12-14T03:56:57.917Z,18.79999924
2022-12-14T03:57:58.399Z,18
2022-12-14T03:58:58.986Z,19.89999962
2022-12-14T03:59:59.508Z,19.5
2022-12-14T04:01:00.199Z,17.5
2022-12-14T04:02:00.929Z,19.10000038
2022-12-14T04:03:01.483Z,18.70000076
2022-12-14T04:04:01.979Z,17.29999924
2022-12-14T04:05:03.207Z,18.20000076
2022-12-14T04:06:03.812Z,18.89999962
2022-12-14T04:07:04.407Z,17.29999924
2022-12-14T04:08:05.009Z,17
2022-12-14T04:09:06.348Z,18.29999924
2022-12-14T04:10:06.982Z,19.20000076
2022-12-14T04:11:07.531Z,18.5
2022-12-14T04:12:08.103Z,18.60000038
2022-12-14T04:13:08.889Z,17.79999924
2022-12-14T04:14:09.411Z,16.89999962
2022-12-14T04:15:10.588Z,18.60000038
2022-12-14T04:16:11.325Z,17.5
2022-12-14T04:17:11.860Z,18.29999924
2022-12-14T04:18:13.310Z,18.89999962
2022-12-14T04:19:13.841Z,19.20000076
2022-12-14T04:20:14.462Z,19.20000076
2022-12-14T04:21:14.987Z,18
2022-12-14T04:22:15.543Z,18.5
2022-12-14T04:23:16.055Z,18.5
2022-12-14T04:24:16.614Z,19.39999962
2022-12-14T04:25:18.227Z,18.89999962
2022-12-14T04:26:18.781Z,18.10000038
2022-12-14T04:27:19.362Z,20.60000038
2022-12-14T04:28:19.971Z,20.60000038
2022-12-14T04:29:20.982Z,21.10000038
2022-12-14T04:30:52.034Z,21.5
2022-12-14T04:31:52.754Z,19.89999962
2022-12-14T04:32:54.164Z,19.89999962
2022-12-14T04:33:54.631Z,22.39999962
2022-12-14T04:34:56.263Z,21.5
2022-12-14T04:35:56.796Z,21.60000038
2022-12-14T04:36:57.400Z,20
2022-12-14T04:37:58.001Z,22.39999962
2022-12-14T04:38:58.491Z,20.39999962
2022-12-14T04:39:59.072Z,22
2022-12-14T04:40:59.632Z,21.10000038
2022-12-14T04:42:00.312Z,21.20000076
2022-12-14T04:43:00.902Z,23
2022-12-14T04:44:01.398Z,22.79999924
2022-12-14T04:45:02.702Z,23
2022-12-14T04:46:03.258Z,22.79999924
2022-12-14T04:47:03.785Z,23.70000076
2022-12-14T04:48:04.369Z,23.39999962
2022-12-14T04:49:04.891Z,23.20000076
2022-12-14T04:50:05.505Z,22.39999962
2022-12-14T04:51:06.027Z,22.5
2022-12-14T04:52:06.584Z,23.39999962
2022-12-14T04:53:07.165Z,23.10000038
2022-12-14T04:54:07.700Z,24.20000076
2022-12-14T04:55:09.251Z,23.60000038
2022-12-14T04:56:09.785Z,24.70000076
2022-12-14T04:57:13.289Z,24.10000038
2022-12-14T04:58:10.980Z,24.70000076
2022-12-14T04:59:12.406Z,23.20000076
2022-12-14T05:00:12.997Z,25.20000076
2022-12-14T05:01:13.718Z,25
2022-12-14T05:02:14.288Z,24.29999924
2022-12-14T05:03:14.804Z,24.89999962
2022-12-14T05:04:15.308Z,25.20000076
2022-12-14T05:05:16.626Z,24.39999962
2022-12-14T05:06:17.195Z,24.20000076
2022-12-14T05:07:17.765Z,25
2022-12-14T05:08:18.307Z,25.20000076
2022-12-14T05:09:19.329Z,24.5
2022-12-14T05:10:20.401Z,25.29999924
2022-12-14T05:11:54.086Z,25.29999924
2022-12-14T05:12:51.922Z,25.39999962
2022-12-14T05:13:52.571Z,25.89999962
2022-12-14T05:14:53.855Z,26.89999962
2022-12-14T05:15:54.338Z,27.20000076
2022-12-14T05:16:55.031Z,25.5
2022-12-14T05:17:55.603Z,28
2022-12-14T05:18:56.152Z,26.39999962
2022-12-14T05:19:57.683Z,24.10000038
2022-12-14T05:20:58.238Z,25.89999962
2022-12-14T05:21:58.840Z,24.39999962
2022-12-14T05:22:59.416Z,23.5
2022-12-14T05:24:00.197Z,25.39999962
2022-12-14T05:25:01.344Z,25.39999962
2022-12-14T05:26:01.898Z,24.60000038
2022-12-14T05:27:02.407Z,25.29999924
2022-12-14T05:28:03.006Z,25.79999924
2022-12-14T05:29:03.594Z,23.29999924
2022-12-14T05:30:04.250Z,25.39999962
2022-12-14T05:31:04.909Z,25.39999962
2022-12-14T05:32:05.411Z,25.29999924
2022-12-14T05:33:05.998Z,24.39999962
2022-12-14T05:34:06.584Z,25.10000038
2022-12-14T05:35:07.172Z,26.5
2022-12-14T05:36:07.729Z,26.5
2022-12-14T05:37:10.511Z,25.5
2022-12-14T05:38:08.970Z,27.29999924
2022-12-14T05:39:09.485Z,26.79999924
2022-12-14T05:40:10.122Z,27.10000038
2022-12-14T05:41:10.731Z,27
2022-12-14T05:42:11.339Z,27.79999924
2022-12-14T05:43:11.944Z,24.60000038
2022-12-14T05:44:12.496Z,26.10000038
2022-12-14T05:45:13.892Z,25.10000038
2022-12-14T05:46:14.525Z,25.29999924
2022-12-14T05:47:15.845Z,24.70000076
2022-12-14T05:48:16.362Z,24.39999962
2022-12-14T05:49:17.068Z,25.60000038
2022-12-14T05:50:17.644Z,26
2022-12-14T05:51:18.183Z,24.20000076
2022-12-14T05:52:18.843Z,25.60000038
2022-12-14T05:53:19.412Z,25
2022-12-14T05:54:50.530Z,25.29999924
2022-12-14T05:55:51.607Z,24.10000038
2022-12-14T05:56:52.519Z,24.20000076
2022-12-14T05:57:53.073Z,24.89999962
2022-12-14T05:58:53.592Z,26.29999924
2022-12-14T05:59:54.323Z,26.10000038
2022-12-14T06:00:54.830Z,25.5
2022-12-14T06:01:55.406Z,23.60000038
2022-12-14T06:02:55.998Z,24.10000038
2022-12-14T06:03:56.615Z,25.60000038
2022-12-14T06:04:57.892Z,23.5
2022-12-14T06:05:58.347Z,24.10000038
2022-12-14T06:06:58.973Z,25.60000038
2022-12-14T06:07:59.587Z,24.10000038
2022-12-14T06:09:00.102Z,23.39999962
2022-12-14T06:10:00.830Z,24.29999924
2022-12-14T06:11:02.119Z,24.10000038
2022-12-14T06:12:02.729Z,24.20000076
2022-12-14T06:13:03.272Z,24.79999924
2022-12-14T06:14:03.806Z,22.70000076
2022-12-14T06:15:05.407Z,24
2022-12-14T06:16:05.899Z,24.20000076
2022-12-14T06:17:06.519Z,25.39999962
2022-12-14T06:18:07.043Z,23.89999962
2022-12-14T06:19:08.426Z,24.10000038
2022-12-14T06:20:09.040Z,22.89999962
2022-12-14T06:21:09.586Z,23.89999962
2022-12-14T06:22:10.293Z,24.60000038
2022-12-14T06:23:10.810Z,23.79999924
2022-12-14T06:24:11.467Z,24.70000076
2022-12-14T06:25:12.858Z,24.89999962
2022-12-14T06:26:13.352Z,26.29999924
2022-12-14T06:27:13.987Z,25.5
2022-12-14T06:28:14.498Z,25.29999924
2022-12-14T06:29:15.832Z,26.60000038
2022-12-14T06:30:16.368Z,24
2022-12-14T06:31:16.963Z,24
2022-12-14T06:32:17.488Z,24.20000076
2022-12-14T06:33:18.026Z,26.10000038
2022-12-14T06:34:19.195Z,23
2022-12-14T06:35:50.692Z,24.29999924
2022-12-14T06:36:51.204Z,25.20000076
2022-12-14T06:37:51.718Z,24.79999924
2022-12-14T06:38:52.479Z,23.10000038
2022-12-14T06:39:54.599Z,24.5
2022-12-14T06:40:53.642Z,23.29999924
2022-12-14T06:41:54.168Z,23.20000076
2022-12-14T06:42:54.685Z,23.39999962
2022-12-14T06:43:55.233Z,23.29999924
2022-12-14T06:44:55.748Z,22.89999962
2022-12-14T06:45:57.363Z,22.70000076
2022-12-14T06:46:57.832Z,22.29999924
2022-12-14T06:47:58.451Z,22.70000076
2022-12-14T06:48:59.005Z,23.39999962
2022-12-14T06:50:00.202Z,24.10000038
2022-12-14T06:51:00.809Z,23
2022-12-14T06:52:01.304Z,22.20000076
2022-12-14T06:53:01.923Z,22.20000076
2022-12-14T06:54:02.460Z,22.5
2022-12-14T06:55:03.098Z,22.79999924
2022-12-14T06:56:04.619Z,23.29999924
2022-12-14T06:57:05.099Z,22.10000038
2022-12-14T06:58:05.765Z,22
2022-12-14T06:59:06.292Z,23.39999962
2022-12-14T07:00:06.824Z,23.60000038
2022-12-14T07:01:07.537Z,21
2022-12-14T07:02:09.081Z,22.29999924
2022-12-14T07:03:09.600Z,22.70000076
2022-12-14T07:04:10.037Z,22.29999924
2022-12-14T07:05:10.704Z,21.20000076
2022-12-14T07:06:12.110Z,21.5
2022-12-14T07:07:12.716Z,22.29999924
2022-12-14T07:08:13.225Z,22
2022-12-14T07:09:13.786Z,22.70000076
2022-12-14T07:10:14.343Z,21.89999962
2022-12-14T07:11:14.874Z,21
2022-12-14T07:12:15.521Z,19.39999962
2022-12-14T07:13:16.096Z,19.5
2022-12-14T07:14:16.635Z,20.10000038
2022-12-14T07:15:17.196Z,20.60000038
2022-12-14T07:16:19.160Z,20
2022-12-14T07:17:50.088Z,19.89999962
2022-12-14T07:18:50.652Z,19.79999924
2022-12-14T07:19:51.225Z,20.29999924
2022-12-14T07:20:51.750Z,20.60000038
2022-12-14T07:21:52.741Z,19.20000076
2022-12-14T07:22:53.207Z,20.60000038
2022-12-14T07:23:53.769Z,19.5
2022-12-14T07:24:54.280Z,20.29999924
2022-12-14T07:25:55.590Z,20.79999924
2022-12-14T07:26:56.278Z,20.70000076
2022-12-14T07:27:56.755Z,20
2022-12-14T07:28:57.329Z,21.10000038
2022-12-14T07:29:57.945Z,20
2022-12-14T07:30:58.529Z,22.70000076
2022-12-14T07:31:59.114Z,23
2022-12-14T07:32:59.617Z,21.60000038
2022-12-14T07:34:00.337Z,22.89999962
2022-12-14T07:35:00.835Z,21.5
2022-12-14T07:36:02.104Z,21.20000076
2022-12-14T07:37:02.740Z,21.10000038
2022-12-14T07:38:03.234Z,20.79999924
2022-12-14T07:39:03.799Z,21
2022-12-14T07:40:04.400Z,21.10000038
2022-12-14T07:41:04.925Z,21.5
2022-12-14T07:42:05.607Z,23
2022-12-14T07:43:06.094Z,22
2022-12-14T07:44:06.714Z,22.60000038
2022-12-14T07:45:07.209Z,20.89999962
2022-12-14T07:46:08.732Z,21.79999924
2022-12-14T07:47:12.570Z,22.39999962
2022-12-14T07:48:09.706Z,21.20000076
2022-12-14T07:49:11.357Z,21.70000076
2022-12-14T07:50:11.842Z,20.89999962
2022-12-14T07:51:12.398Z,22.20000076
2022-12-14T07:52:13.029Z,21.29999924
2022-12-14T07:53:13.528Z,21.89999962
2022-12-14T07:54:14.147Z,21.5
2022-12-14T07:55:14.698Z,21.10000038
2022-12-14T07:56:16.237Z,20.79999924
2022-12-14T07:57:16.822Z,22.10000038
2022-12-14T07:58:17.409Z,21.39999962
2022-12-14T07:59:17.952Z,21.5
2022-12-14T08:00:48.925Z,22.60000038
2022-12-14T08:01:50.459Z,21.5
2022-12-14T08:02:51.183Z,21.79999924
2022-12-14T08:03:51.548Z,23.20000076
2022-12-14T08:04:52.106Z,21.10000038
2022-12-14T08:05:53.321Z,21.29999924
2022-12-14T08:06:54.126Z,21.29999924
2022-12-14T08:07:54.375Z,22
2022-12-14T08:08:54.955Z,22.79999924
2022-12-14T08:09:55.454Z,22.70000076
2022-12-14T08:10:56.039Z,21.39999962
2022-12-14T08:11:56.572Z,21
2022-12-14T08:12:57.170Z,21.39999962
2022-12-14T08:13:57.771Z,21.5
2022-12-14T08:14:58.282Z,22.39999962
2022-12-14T08:15:59.984Z,22.60000038
2022-12-14T08:17:00.489Z,20.70000076
2022-12-14T08:18:01.962Z,23.39999962
2022-12-14T08:19:02.498Z,21.5
2022-12-14T08:20:03.012Z,21.60000038
2022-12-14T08:21:03.676Z,22.29999924
2022-12-14T08:22:04.224Z,22.39999962
2022-12-14T08:23:04.837Z,20.39999962
2022-12-14T08:24:05.316Z,21.70000076
2022-12-14T08:25:06.008Z,22.5
2022-12-14T08:26:07.300Z,21.39999962
2022-12-14T08:27:07.830Z,21
2022-12-14T08:28:08.504Z,20.79999924
2022-12-14T08:29:09.826Z,21
2022-12-14T08:30:10.412Z,21.39999962
2022-12-14T08:31:11.089Z,21.39999962
2022-12-14T08:32:11.524Z,22.60000038
2022-12-14T08:33:12.144Z,22.5
2022-12-14T08:34:12.630Z,21.5
2022-12-14T08:35:13.253Z,22.89999962
2022-12-14T08:36:13.788Z,21
2022-12-14T08:37:14.958Z,21.29999924
2022-12-14T08:38:15.577Z,21.5
2022-12-14T08:39:16.046Z,22.60000038
2022-12-14T08:40:16.741Z,22.39999962
2022-12-14T08:41:48.444Z,23
2022-12-14T08:42:48.982Z,23
2022-12-14T08:43:49.497Z,24
2022-12-14T08:44:50.684Z,23.70000076
2022-12-14T08:45:51.221Z,24.10000038
2022-12-14T08:46:51.777Z,24.20000076
2022-12-14T08:47:52.533Z,24.60000038
2022-12-14T08:48:53.581Z,25.70000076
2022-12-14T08:49:54.151Z,24.89999962
2022-12-14T08:50:54.694Z,24.10000038
2022-12-14T08:51:55.309Z,23.10000038
2022-12-14T08:52:55.878Z,24.70000076
2022-12-14T08:53:56.392Z,25
2022-12-14T08:54:56.913Z,22.5
2022-12-14T08:55:57.425Z,24.10000038
2022-12-14T08:56:58.576Z,25.20000076
2022-12-14T08:57:59.246Z,24.29999924
2022-12-14T08:58:59.808Z,23.5
2022-12-14T09:00:02.059Z,25
2022-12-14T09:01:00.974Z,23.70000076
2022-12-14T09:02:01.534Z,24.60000038
2022-12-14T09:03:02.160Z,23
2022-12-14T09:04:02.526Z,25
2022-12-14T09:05:03.130Z,24.20000076
2022-12-14T09:06:04.323Z,24.60000038
2022-12-14T09:07:04.818Z,26
2022-12-14T09:08:06.302Z,25.29999924
2022-12-14T09:09:11.897Z,24.10000038
2022-12-14T09:10:07.374Z,26.20000076
2022-12-14T09:11:07.968Z,24.79999924
2022-12-14T09:12:08.720Z,24.79999924
2022-12-14T09:13:09.391Z,24
2022-12-14T09:14:10.009Z,24.29999924
2022-12-14T09:15:10.571Z,24.29999924
2022-12-14T09:16:11.934Z,24.89999962
2022-12-14T09:17:12.340Z,26
2022-12-14T09:18:12.968Z,24.70000076
2022-12-14T09:19:14.352Z,22.70000076
2022-12-14T09:20:14.925Z,23.70000076
2022-12-14T09:21:15.479Z,25.39999962
2022-12-14T09:22:16.061Z,24.10000038
2022-12-14T09:23:16.689Z,25.10000038
2022-12-14T09:24:48.003Z,88.19999695
2022-12-14T09:25:48.529Z,68.5
2022-12-14T09:26:49.573Z,120.4000015
2022-12-14T09:27:50.204Z,163
2022-12-14T09:28:50.812Z,164.1999969
2022-12-14T09:29:51.369Z,133.1999969
2022-12-14T09:30:51.994Z,80
2022-12-14T09:31:52.576Z,86
2022-12-14T09:32:54.213Z,72.09999847
2022-12-14T09:33:54.718Z,87.59999847
2022-12-14T09:34:55.444Z,72.19999695
2022-12-14T09:35:55.975Z,72.90000153
2022-12-14T09:36:57.064Z,62.70000076
2022-12-14T09:37:57.723Z,41.20000076
2022-12-14T09:38:58.322Z,55.90000153
2022-12-14T09:39:58.827Z,42.5
2022-12-14T09:40:59.306Z,36
2022-12-14T09:42:01.187Z,46.40000153
2022-12-14T09:43:00.460Z,40.70000076
2022-12-14T09:44:01.064Z,35.5
2022-12-14T09:45:01.695Z,32.70000076
2022-12-14T09:46:02.238Z,35
2022-12-14T09:47:03.603Z,36.59999847
2022-12-14T09:48:04.222Z,33.5
2022-12-14T09:49:04.742Z,32.5
2022-12-14T09:50:06.245Z,32
2022-12-14T09:51:06.750Z,30.10000038
2022-12-14T09:52:07.351Z,29.20000076
2022-12-14T09:53:07.936Z,29.29999924
2022-12-14T09:54:08.437Z,29.60000038
2022-12-14T09:55:09.065Z,32.40000153
2022-12-14T09:56:09.590Z,26.20000076
2022-12-14T09:57:11.190Z,27.89999962
2022-12-14T09:58:11.776Z,27.89999962
2022-12-14T09:59:12.467Z,29.5
2022-12-14T10:00:13.085Z,28.20000076
2022-12-14T10:01:13.772Z,26.60000038
2022-12-14T10:02:30.194Z,26.29999924
2022-12-14T10:03:14.949Z,26.29999924
2022-12-14T10:04:15.525Z,26.39999962
2022-12-14T10:05:15.990Z,25.79999924
2022-12-14T10:06:16.602Z,24.70000076
2022-12-14T10:07:48.364Z,25.10000038
2022-12-14T10:08:54.403Z,23
2022-12-14T10:09:50.063Z,23.60000038
2022-12-14T10:10:50.796Z,23.70000076
2022-12-14T10:11:51.244Z,24.20000076
2022-12-14T10:12:51.781Z,22.39999962
2022-12-14T10:13:52.554Z,23.5
2022-12-14T10:14:53.584Z,24.39999962
2022-12-14T10:15:54.275Z,23.79999924
2022-12-14T10:16:55.414Z,22.79999924
2022-12-14T10:17:55.932Z,22.39999962
2022-12-14T10:19:00.081Z,22.70000076
2022-12-14T10:19:57.144Z,22.70000076
2022-12-14T10:20:57.750Z,23.70000076
2022-12-14T10:21:58.228Z,22.89999962
2022-12-14T10:22:58.804Z,23.5
2022-12-14T10:23:59.350Z,21.39999962
2022-12-14T10:25:00.819Z,22.39999962
2022-12-14T10:26:01.476Z,23.39999962
2022-12-14T10:27:01.980Z,23.20000076
2022-12-14T10:28:10.778Z,21.60000038
2022-12-14T10:29:04.061Z,23.39999962
2022-12-14T10:30:04.684Z,24.79999924
2022-12-14T10:31:05.219Z,23
2022-12-14T10:32:05.769Z,23.5
2022-12-14T10:33:06.269Z,22.20000076
2022-12-14T10:34:12.013Z,21.79999924
2022-12-14T10:35:07.426Z,21.89999962
2022-12-14T10:36:08.109Z,24
2022-12-14T10:37:09.270Z,23
2022-12-14T10:38:09.833Z,22.89999962
2022-12-14T10:39:10.326Z,24.29999924
2022-12-14T10:40:15.772Z,23.60000038
2022-12-14T10:41:12.267Z,23.70000076
2022-12-14T10:42:12.724Z,23.60000038
2022-12-14T10:43:13.293Z,24
2022-12-14T10:44:13.776Z,25
2022-12-14T10:45:39.821Z,24.39999962
2022-12-14T10:46:15.203Z,23.70000076
2022-12-14T10:47:16.619Z,24.39999962
2022-12-14T10:48:48.344Z,23.79999924
2022-12-14T10:49:48.929Z,23.60000038
2022-12-14T10:50:49.938Z,23.39999962
2022-12-14T10:51:50.127Z,24.60000038
2022-12-14T10:52:50.673Z,23.39999962
2022-12-14T10:53:51.340Z,23.5
2022-12-14T10:54:51.935Z,23.79999924
2022-12-14T10:55:52.583Z,23.20000076
2022-12-14T10:56:53.958Z,23.70000076
2022-12-14T10:57:54.403Z,24.39999962
2022-12-14T10:58:54.989Z,24
2022-12-14T11:00:08.478Z,23.70000076
2022-12-14T11:00:56.221Z,23
2022-12-14T11:01:57.031Z,24.29999924
2022-12-14T11:02:57.541Z,23.39999962
2022-12-14T11:03:57.959Z,21.70000076
2022-12-14T11:04:58.486Z,21.60000038
2022-12-14T11:05:59.085Z,23.79999924
2022-12-14T11:07:00.346Z,24.5
2022-12-14T11:08:00.859Z,23.39999962
2022-12-14T11:09:01.507Z,22.20000076
2022-12-14T11:10:02.014Z,22.20000076
2022-12-14T11:11:02.601Z,22.79999924
2022-12-14T11:12:03.256Z,22.5
2022-12-14T11:13:03.693Z,23.10000038
2022-12-14T11:14:04.289Z,22.29999924
2022-12-14T11:15:04.793Z,22.20000076
2022-12-14T11:16:06.088Z,22.60000038
2022-12-14T11:17:07.490Z,22.70000076
2022-12-14T11:18:07.954Z,23.39999962
2022-12-14T11:19:08.444Z,23.10000038
2022-12-14T11:20:09.595Z,21.89999962
2022-12-14T11:21:10.227Z,22.89999962
2022-12-14T11:22:10.756Z,23.20000076
2022-12-14T11:23:11.353Z,22.29999924
2022-12-14T11:24:11.925Z,21.5
2022-12-14T11:25:12.462Z,23.60000038
2022-12-14T11:26:13.008Z,23.39999962
2022-12-14T11:27:14.342Z,22.5
2022-12-14T11:28:14.907Z,21.29999924
2022-12-14T11:29:15.468Z,23.79999924
2022-12-14T11:30:47.117Z,23.29999924
2022-12-14T11:31:47.685Z,24.20000076
2022-12-14T11:32:48.309Z,22.70000076
2022-12-14T11:33:50.471Z,22.89999962
2022-12-14T11:34:49.388Z,21.89999962
2022-12-14T11:35:49.935Z,21.79999924
2022-12-14T11:36:50.466Z,21.5
2022-12-14T11:37:51.652Z,24